Terminal Aerodrome Forecast
Issued by NWS

Current Version | Previous Version | Text Only | Print | Product List | Glossary On
Versions: 1 2 3 4 5 6 7 8 9 10 11 12 13 14 15
000
FTUS42 KTBW 212323
TAFRSW
TAF
KRSW 212323Z 2200/2224 17009KT P6SM BKN050 BKN250
     FM220200 15006KT P6SM SCT045 SCT120 BKN200
     FM221100 14007KT P6SM SHRA SCT025 OVC100
     FM221400 16009KT 5SM TSRA BKN020CB OVC050
     FM222100 10007KT 5SM SHRA VCTS BKN020CB OVC050=

USA.gov is the U.S. government's official web portal to all federal, state and local government web resources and services.